sensor_id;sensor_type;location;lat;lon;timestamp;pressure;altitude;pressure_sealevel;temperature
45701;BMP280;36277;32.852;-116.998;2023-03-31T00:01:49;100068.25;;;24.13
45701;BMP280;36277;32.852;-116.998;2023-03-31T00:04:17;100075.03;;;24.11
45701;BMP280;36277;32.852;-116.998;2023-03-31T00:06:43;100071.41;;;24.11
45701;BMP280;36277;32.852;-116.998;2023-03-31T00:09:14;100071.50;;;24.17
45701;BMP280;36277;32.852;-116.998;2023-03-31T00:11:44;100077.84;;;24.17
45701;BMP280;36277;32.852;-116.998;2023-03-31T00:14:11;100071.13;;;24.20
45701;BMP280;36277;32.852;-116.998;2023-03-31T00:16:38;100080.44;;;24.19
45701;BMP280;36277;32.852;-116.998;2023-03-31T00:19:05;100077.84;;;24.17
45701;BMP280;36277;32.852;-116.998;2023-03-31T00:21:35;100075.97;;;24.18
45701;BMP280;36277;32.852;-116.998;2023-03-31T00:24:09;100077.25;;;24.22
45701;BMP280;36277;32.852;-116.998;2023-03-31T00:26:36;100077.03;;;24.17
45701;BMP280;36277;32.852;-116.998;2023-03-31T00:29:05;100078.34;;;24.21
45701;BMP280;36277;32.852;-116.998;2023-03-31T00:31:32;100084.03;;;24.19
45701;BMP280;36277;32.852;-116.998;2023-03-31T00:33:58;100082.78;;;24.22
45701;BMP280;36277;32.852;-116.998;2023-03-31T00:36:24;100084.97;;;24.26
45701;BMP280;36277;32.852;-116.998;2023-03-31T00:38:56;100082.00;;;24.28
45701;BMP280;36277;32.852;-116.998;2023-03-31T00:41:29;100084.38;;;24.31
45701;BMP280;36277;32.852;-116.998;2023-03-31T00:47:00;100093.75;;;24.36
45701;BMP280;36277;32.852;-116.998;2023-03-31T00:49:31;100101.38;;;24.34
45701;BMP280;36277;32.852;-116.998;2023-03-31T00:52:05;100100.53;;;24.34
45701;BMP280;36277;32.852;-116.998;2023-03-31T00:54:33;100103.94;;;24.36
45701;BMP280;36277;32.852;-116.998;2023-03-31T00:57:03;100101.59;;;24.33
45701;BMP280;36277;32.852;-116.998;2023-03-31T00:59:37;100100.59;;;24.40
45701;BMP280;36277;32.852;-116.998;2023-03-31T01:02:06;100109.09;;;24.39
45701;BMP280;36277;32.852;-116.998;2023-03-31T01:04:44;100109.91;;;24.39
45701;BMP280;36277;32.852;-116.998;2023-03-31T01:07:26;100117.53;;;24.37
45701;BMP280;36277;32.852;-116.998;2023-03-31T01:10:00;100122.59;;;24.34
45701;BMP280;36277;32.852;-116.998;2023-03-31T01:12:27;100131.25;;;24.31
45701;BMP280;36277;32.852;-116.998;2023-03-31T01:14:54;100128.72;;;24.29
45701;BMP280;36277;32.852;-116.998;2023-03-31T01:17:21;100135.28;;;24.28
45701;BMP280;36277;32.852;-116.998;2023-03-31T01:23:01;100139.25;;;24.26
45701;BMP280;36277;32.852;-116.998;2023-03-31T01:41:44;100144.16;;;24.10
45701;BMP280;36277;32.852;-116.998;2023-03-31T01:44:24;100150.72;;;24.09
45701;BMP280;36277;32.852;-116.998;2023-03-31T01:47:05;100149.41;;;24.05
45701;BMP280;36277;32.852;-116.998;2023-03-31T01:49:54;100158.72;;;24.04
45701;BMP280;36277;32.852;-116.998;2023-03-31T01:55:05;100159.94;;;24.01
45701;BMP280;36277;32.852;-116.998;2023-03-31T01:57:36;100159.28;;;23.99
45701;BMP280;36277;32.852;-116.998;2023-03-31T02:00:09;100161.00;;;24.00
45701;BMP280;36277;32.852;-116.998;2023-03-31T02:02:44;100164.81;;;23.99
45701;BMP280;36277;32.852;-116.998;2023-03-31T02:05:17;100163.09;;;23.98
45701;BMP280;36277;32.852;-116.998;2023-03-31T02:07:53;100172.22;;;23.99
45701;BMP280;36277;32.852;-116.998;2023-03-31T02:10:24;100184.47;;;23.96
45701;BMP280;36277;32.852;-116.998;2023-03-31T02:12:52;100186.41;;;23.96
45701;BMP280;36277;32.852;-116.998;2023-03-31T02:15:23;100191.91;;;23.96
45701;BMP280;36277;32.852;-116.998;2023-03-31T02:17:55;100185.72;;;23.94
45701;BMP280;36277;32.852;-116.998;2023-03-31T02:20:25;100182.13;;;23.93
45701;BMP280;36277;32.852;-116.998;2023-03-31T02:22:55;100195.03;;;23.93
45701;BMP280;36277;32.852;-116.998;2023-03-31T02:25:34;100189.06;;;24.04
45701;BMP280;36277;32.852;-116.998;2023-03-31T02:28:07;100188.09;;;24.11
45701;BMP280;36277;32.852;-116.998;2023-03-31T02:31:01;100194.81;;;24.23
45701;BMP280;36277;32.852;-116.998;2023-03-31T02:33:30;100195.97;;;24.28
45701;BMP280;36277;32.852;-116.998;2023-03-31T02:35:57;100196.97;;;24.42
45701;BMP280;36277;32.852;-116.998;2023-03-31T02:38:24;100205.16;;;24.50
45701;BMP280;36277;32.852;-116.998;2023-03-31T02:40:51;100205.69;;;24.60
45701;BMP280;36277;32.852;-116.998;2023-03-31T02:43:18;100219.38;;;24.68
45701;BMP280;36277;32.852;-116.998;2023-03-31T02:45:45;100221.16;;;24.75
45701;BMP280;36277;32.852;-116.998;2023-03-31T02:48:24;100217.81;;;24.80
45701;BMP280;36277;32.852;-116.998;2023-03-31T03:12:30;100268.25;;;24.74
45701;BMP280;36277;32.852;-116.998;2023-03-31T03:15:21;100270.41;;;24.72
45701;BMP280;36277;32.852;-116.998;2023-03-31T03:17:50;100274.75;;;24.66
45701;BMP280;36277;32.852;-116.998;2023-03-31T03:20:19;100276.03;;;24.64
45701;BMP280;36277;32.852;-116.998;2023-03-31T03:22:45;100274.25;;;24.56
45701;BMP280;36277;32.852;-116.998;2023-03-31T03:25:14;100283.72;;;24.54
45701;BMP280;36277;32.852;-116.998;2023-03-31T03:27:45;100284.13;;;24.51
45701;BMP280;36277;32.852;-116.998;2023-03-31T03:30:12;100279.25;;;24.53
45701;BMP280;36277;32.852;-116.998;2023-03-31T03:32:39;100278.59;;;24.51
45701;BMP280;36277;32.852;-116.998;2023-03-31T03:35:06;100285.16;;;24.50
45701;BMP280;36277;32.852;-116.998;2023-03-31T03:37:33;100280.31;;;24.52
45701;BMP280;36277;32.852;-116.998;2023-03-31T03:39:59;100284.13;;;24.51
45701;BMP280;36277;32.852;-116.998;2023-03-31T03:42:26;100286.59;;;24.46
45701;BMP280;36277;32.852;-116.998;2023-03-31T03:44:52;100280.69;;;24.49
45701;BMP280;36277;32.852;-116.998;2023-03-31T03:47:18;100284.88;;;24.45
45701;BMP280;36277;32.852;-116.998;2023-03-31T03:49:44;100284.50;;;24.48
45701;BMP280;36277;32.852;-116.998;2023-03-31T03:52:13;100294.19;;;24.44
45701;BMP280;36277;32.852;-116.998;2023-03-31T03:54:39;100300.94;;;24.41
45701;BMP280;36277;32.852;-116.998;2023-03-31T03:57:06;100302.19;;;24.39
45701;BMP280;36277;32.852;-116.998;2023-03-31T03:59:32;100303.03;;;24.39
45701;BMP280;36277;32.852;-116.998;2023-03-31T04:01:58;100312.72;;;24.35
45701;BMP280;36277;32.852;-116.998;2023-03-31T04:04:25;100313.97;;;24.33
45701;BMP280;36277;32.852;-116.998;2023-03-31T04:06:51;100315.25;;;24.30
45701;BMP280;36277;32.852;-116.998;2023-03-31T04:09:17;100322.25;;;24.33
45701;BMP280;36277;32.852;-116.998;2023-03-31T04:11:44;100338.81;;;24.33
45701;BMP280;36277;32.852;-116.998;2023-03-31T04:14:10;100343.66;;;24.31
45701;BMP280;36277;32.852;-116.998;2023-03-31T04:16:36;100348.50;;;24.29
45701;BMP280;36277;32.852;-116.998;2023-03-31T04:19:05;100352.31;;;24.28
45701;BMP280;36277;32.852;-116.998;2023-03-31T04:21:31;100354.59;;;24.24
45701;BMP280;36277;32.852;-116.998;2023-03-31T04:24:01;100365.44;;;24.26
45701;BMP280;36277;32.852;-116.998;2023-03-31T04:26:31;100371.16;;;24.24
45701;BMP280;36277;32.852;-116.998;2023-03-31T04:29:13;100366.00;;;24.21
45701;BMP280;36277;32.852;-116.998;2023-03-31T04:31:41;100366.75;;;24.15
45701;BMP280;36277;32.852;-116.998;2023-03-31T04:34:14;100370.19;;;24.17
45701;BMP280;36277;32.852;-116.998;2023-03-31T04:36:45;100378.66;;;24.16
45701;BMP280;36277;32.852;-116.998;2023-03-31T04:41:41;100387.69;;;24.10
45701;BMP280;36277;32.852;-116.998;2023-03-31T04:44:07;100398.72;;;24.10
45701;BMP280;36277;32.852;-116.998;2023-03-31T04:46:34;100400.44;;;24.11
45701;BMP280;36277;32.852;-116.998;2023-03-31T04:49:01;100412.50;;;24.10
45701;BMP280;36277;32.852;-116.998;2023-03-31T04:51:28;100411.81;;;24.08
45701;BMP280;36277;32.852;-116.998;2023-03-31T04:53:54;100415.31;;;24.02
45701;BMP280;36277;32.852;-116.998;2023-03-31T04:56:20;100421.72;;;24.03
45701;BMP280;36277;32.852;-116.998;2023-03-31T04:58:47;100423.44;;;24.04
45701;BMP280;36277;32.852;-116.998;2023-03-31T05:01:14;100433.59;;;24.03
45701;BMP280;36277;32.852;-116.998;2023-03-31T05:03:44;100436.16;;;24.05
45701;BMP280;36277;32.852;-116.998;2023-03-31T05:06:14;100440.81;;;24.04
45701;BMP280;36277;32.852;-116.998;2023-03-31T05:08:40;100447.75;;;24.00
45701;BMP280;36277;32.852;-116.998;2023-03-31T05:11:07;100456.38;;;23.97
45701;BMP280;36277;32.852;-116.998;2023-03-31T05:13:33;100453.63;;;23.97
45701;BMP280;36277;32.852;-116.998;2023-03-31T05:16:08;100464.47;;;23.99
45701;BMP280;36277;32.852;-116.998;2023-03-31T05:18:35;100465.03;;;23.94
45701;BMP280;36277;32.852;-116.998;2023-03-31T05:21:16;100470.34;;;23.96
45701;BMP280;36277;32.852;-116.998;2023-03-31T05:23:43;100473.16;;;23.88
45701;BMP280;36277;32.852;-116.998;2023-03-31T05:26:11;100470.63;;;23.86
45701;BMP280;36277;32.852;-116.998;2023-03-31T05:28:38;100470.97;;;23.83
45701;BMP280;36277;32.852;-116.998;2023-03-31T05:31:06;100480.28;;;23.82
45701;BMP280;36277;32.852;-116.998;2023-03-31T05:33:33;100487.88;;;23.80
45701;BMP280;36277;32.852;-116.998;2023-03-31T05:35:59;100488.06;;;23.79
45701;BMP280;36277;32.852;-116.998;2023-03-31T05:38:26;100483.72;;;23.76
45701;BMP280;36277;32.852;-116.998;2023-03-31T05:40:59;100499.59;;;23.74
45701;BMP280;36277;32.852;-116.998;2023-03-31T05:43:25;100497.03;;;23.73
45701;BMP280;36277;32.852;-116.998;2023-03-31T05:45:51;100506.91;;;23.67
45701;BMP280;36277;32.852;-116.998;2023-03-31T05:48:18;100499.66;;;23.66
45701;BMP280;36277;32.852;-116.998;2023-03-31T05:50:44;100509.66;;;23.67
45701;BMP280;36277;32.852;-116.998;2023-03-31T05:53:10;100508.78;;;23.67
45701;BMP280;36277;32.852;-116.998;2023-03-31T05:55:37;100503.63;;;23.64
45701;BMP280;36277;32.852;-116.998;2023-03-31T05:58:04;100508.09;;;23.65
45701;BMP280;36277;32.852;-116.998;2023-03-31T06:00:31;100505.53;;;23.63
45701;BMP280;36277;32.852;-116.998;2023-03-31T06:02:58;100512.25;;;23.61
45701;BMP280;36277;32.852;-116.998;2023-03-31T06:05:24;100507.97;;;23.58
45701;BMP280;36277;32.852;-116.998;2023-03-31T06:07:55;100509.38;;;23.54
45701;BMP280;36277;32.852;-116.998;2023-03-31T06:10:21;100514.88;;;23.54
45701;BMP280;36277;32.852;-116.998;2023-03-31T06:12:48;100509.72;;;23.51
45701;BMP280;36277;32.852;-116.998;2023-03-31T06:15:14;100503.53;;;23.49
45701;BMP280;36277;32.852;-116.998;2023-03-31T06:17:40;100496.31;;;23.48
45701;BMP280;36277;32.852;-116.998;2023-03-31T06:20:07;100502.03;;;23.47
45701;BMP280;36277;32.852;-116.998;2023-03-31T06:22:34;100503.25;;;23.44
45701;BMP280;36277;32.852;-116.998;2023-03-31T06:25:00;100505.47;;;23.49
45701;BMP280;36277;32.852;-116.998;2023-03-31T06:27:26;100514.03;;;23.54
45701;BMP280;36277;32.852;-116.998;2023-03-31T06:29:53;100517.59;;;23.62
45701;BMP280;36277;32.852;-116.998;2023-03-31T06:32:19;100517.53;;;23.70
45701;BMP280;36277;32.852;-116.998;2023-03-31T06:34:46;100509.94;;;23.80
45701;BMP280;36277;32.852;-116.998;2023-03-31T06:37:12;100514.53;;;23.88
45701;BMP280;36277;32.852;-116.998;2023-03-31T06:39:38;100512.56;;;23.96
45701;BMP280;36277;32.852;-116.998;2023-03-31T06:42:05;100512.34;;;24.06
45701;BMP280;36277;32.852;-116.998;2023-03-31T06:44:31;100513.13;;;24.14
45701;BMP280;36277;32.852;-116.998;2023-03-31T06:46:58;100513.03;;;24.22
45701;BMP280;36277;32.852;-116.998;2023-03-31T06:49:24;100509.16;;;24.31
45701;BMP280;36277;32.852;-116.998;2023-03-31T06:51:50;100516.16;;;24.41
45701;BMP280;36277;32.852;-116.998;2023-03-31T06:54:17;100510.75;;;24.48
45701;BMP280;36277;32.852;-116.998;2023-03-31T06:56:43;100507.94;;;24.56
45701;BMP280;36277;32.852;-116.998;2023-03-31T06:59:09;100518.03;;;24.63
45701;BMP280;36277;32.852;-116.998;2023-03-31T07:01:35;100515.41;;;24.70
45701;BMP280;36277;32.852;-116.998;2023-03-31T07:04:03;100515.28;;;24.78
45701;BMP280;36277;32.852;-116.998;2023-03-31T07:06:30;100517.66;;;24.81
45701;BMP280;36277;32.852;-116.998;2023-03-31T07:08:56;100528.41;;;24.76
45701;BMP280;36277;32.852;-116.998;2023-03-31T07:11:22;100530.50;;;24.74
45701;BMP280;36277;32.852;-116.998;2023-03-31T07:13:48;100528.53;;;24.68
45701;BMP280;36277;32.852;-116.998;2023-03-31T07:16:15;100529.75;;;24.65
45701;BMP280;36277;32.852;-116.998;2023-03-31T07:18:41;100523.06;;;24.60
45701;BMP280;36277;32.852;-116.998;2023-03-31T07:21:07;100515.84;;;24.59
45701;BMP280;36277;32.852;-116.998;2023-03-31T07:23:34;100513.28;;;24.57
45701;BMP280;36277;32.852;-116.998;2023-03-31T07:26:01;100515.53;;;24.54
45701;BMP280;36277;32.852;-116.998;2023-03-31T07:28:28;100510.38;;;24.51
45701;BMP280;36277;32.852;-116.998;2023-03-31T07:30:55;100507.31;;;24.46
45701;BMP280;36277;32.852;-116.998;2023-03-31T07:33:21;100507.88;;;24.41
45701;BMP280;36277;32.852;-116.998;2023-03-31T07:35:48;100506.34;;;24.39
45701;BMP280;36277;32.852;-116.998;2023-03-31T07:38:14;100498.44;;;24.36
45701;BMP280;36277;32.852;-116.998;2023-03-31T07:40:42;100508.81;;;24.34
45701;BMP280;36277;32.852;-116.998;2023-03-31T07:43:09;100506.63;;;24.29
45701;BMP280;36277;32.852;-116.998;2023-03-31T07:45:37;100513.72;;;24.24
45701;BMP280;36277;32.852;-116.998;2023-03-31T07:48:04;100516.66;;;24.22
45701;BMP280;36277;32.852;-116.998;2023-03-31T07:50:30;100522.75;;;24.18
45701;BMP280;36277;32.852;-116.998;2023-03-31T07:52:57;100523.97;;;24.15
45701;BMP280;36277;32.852;-116.998;2023-03-31T07:55:23;100513.50;;;24.11
45701;BMP280;36277;32.852;-116.998;2023-03-31T07:57:51;100512.13;;;24.07
45701;BMP280;36277;32.852;-116.998;2023-03-31T08:00:17;100520.63;;;24.06
45701;BMP280;36277;32.852;-116.998;2023-03-31T08:02:44;100524.56;;;24.03
45701;BMP280;36277;32.852;-116.998;2023-03-31T08:05:12;100524.78;;;24.02
45701;BMP280;36277;32.852;-116.998;2023-03-31T08:07:41;100534.09;;;24.01
45701;BMP280;36277;32.852;-116.998;2023-03-31T08:10:15;100530.81;;;23.97
45701;BMP280;36277;32.852;-116.998;2023-03-31T08:12:41;100534.34;;;23.91
45701;BMP280;36277;32.852;-116.998;2023-03-31T08:15:08;100547.59;;;23.88
45701;BMP280;36277;32.852;-116.998;2023-03-31T08:17:34;100545.88;;;23.87
45701;BMP280;36277;32.852;-116.998;2023-03-31T08:20:01;100554.34;;;23.85
45701;BMP280;36277;32.852;-116.998;2023-03-31T08:22:29;100550.44;;;23.80
45701;BMP280;36277;32.852;-116.998;2023-03-31T08:24:55;100562.50;;;23.79
45701;BMP280;36277;32.852;-116.998;2023-03-31T08:27:21;100559.19;;;23.75
45701;BMP280;36277;32.852;-116.998;2023-03-31T08:29:48;100556.78;;;23.72
45701;BMP280;36277;32.852;-116.998;2023-03-31T08:32:14;100556.13;;;23.70
45701;BMP280;36277;32.852;-116.998;2023-03-31T08:34:41;100563.72;;;23.68
45701;BMP280;36277;32.852;-116.998;2023-03-31T08:37:08;100577.50;;;23.68
45701;BMP280;36277;32.852;-116.998;2023-03-31T08:39:35;100575.28;;;23.64
45701;BMP280;36277;32.852;-116.998;2023-03-31T08:42:06;100572.38;;;23.65
45701;BMP280;36277;32.852;-116.998;2023-03-31T08:44:43;100583.91;;;23.61
45701;BMP280;36277;32.852;-116.998;2023-03-31T08:47:16;100587.69;;;23.60
45701;BMP280;36277;32.852;-116.998;2023-03-31T08:49:57;100591.88;;;23.56
45701;BMP280;36277;32.852;-116.998;2023-03-31T08:52:30;100588.59;;;23.52
45701;BMP280;36277;32.852;-116.998;2023-03-31T08:55:04;100580.88;;;23.48
45701;BMP280;36277;32.852;-116.998;2023-03-31T09:01:05;100592.13;;;23.38
45701;BMP280;36277;32.852;-116.998;2023-03-31T09:06:17;100594.19;;;23.36
45701;BMP280;36277;32.852;-116.998;2023-03-31T09:08:47;100596.97;;;23.28
45701;BMP280;36277;32.852;-116.998;2023-03-31T09:11:27;100594.19;;;23.36
45701;BMP280;36277;32.852;-116.998;2023-03-31T09:14:17;100599.03;;;23.26
45701;BMP280;36277;32.852;-116.998;2023-03-31T09:19:35;100600.06;;;23.25
45701;BMP280;36277;32.852;-116.998;2023-03-31T09:22:05;100609.03;;;23.19
45701;BMP280;36277;32.852;-116.998;2023-03-31T09:24:48;100610.59;;;23.22
45701;BMP280;36277;32.852;-116.998;2023-03-31T09:27:17;100613.53;;;23.12
45701;BMP280;36277;32.852;-116.998;2023-03-31T09:29:51;100611.81;;;23.11
45701;BMP280;36277;32.852;-116.998;2023-03-31T09:32:30;100611.13;;;23.09
45701;BMP280;36277;32.852;-116.998;2023-03-31T09:35:18;100602.34;;;23.06
45701;BMP280;36277;32.852;-116.998;2023-03-31T09:37:46;100619.03;;;22.97
45701;BMP280;36277;32.852;-116.998;2023-03-31T09:40:23;100613.19;;;22.99
45701;BMP280;36277;32.852;-116.998;2023-03-31T09:43:01;100625.75;;;22.94
45701;BMP280;36277;32.852;-116.998;2023-03-31T09:45:29;100626.28;;;22.90
45701;BMP280;36277;32.852;-116.998;2023-03-31T09:48:01;100637.31;;;22.90
45701;BMP280;36277;32.852;-116.998;2023-03-31T09:50:35;100635.94;;;22.86
45701;BMP280;36277;32.852;-116.998;2023-03-31T09:53:15;100637.81;;;22.85
45701;BMP280;36277;32.852;-116.998;2023-03-31T09:55:48;100640.91;;;22.82
45701;BMP280;36277;32.852;-116.998;2023-03-31T09:58:17;100642.31;;;22.78
45701;BMP280;36277;32.852;-116.998;2023-03-31T10:00:57;100644.88;;;22.80
45701;BMP280;36277;32.852;-116.998;2023-03-31T10:03:24;100647.63;;;22.72
45701;BMP280;36277;32.852;-116.998;2023-03-31T10:05:55;100648.66;;;22.71
45701;BMP280;36277;32.852;-116.998;2023-03-31T10:08:31;100649.34;;;22.73
45701;BMP280;36277;32.852;-116.998;2023-03-31T10:13:40;100646.91;;;22.70
45701;BMP280;36277;32.852;-116.998;2023-03-31T10:16:13;100651.41;;;22.63
45701;BMP280;36277;32.852;-116.998;2023-03-31T10:18:42;100643.84;;;22.57
45701;BMP280;36277;32.852;-116.998;2023-03-31T10:21:26;100652.78;;;22.59
45701;BMP280;36277;32.852;-116.998;2023-03-31T10:23:53;100648.63;;;22.47
45701;BMP280;36277;32.852;-116.998;2023-03-31T10:26:22;100644.53;;;22.51
45701;BMP280;36277;32.852;-116.998;2023-03-31T10:28:52;100646.44;;;22.50
45701;BMP280;36277;32.852;-116.998;2023-03-31T10:31:24;100645.56;;;22.50
45701;BMP280;36277;32.852;-116.998;2023-03-31T10:33:52;100645.19;;;22.45
45701;BMP280;36277;32.852;-116.998;2023-03-31T10:36:25;100643.84;;;22.49
45701;BMP280;36277;32.852;-116.998;2023-03-31T10:38:53;100649.34;;;22.41
45701;BMP280;36277;32.852;-116.998;2023-03-31T10:41:25;100656.56;;;22.42
45701;BMP280;36277;32.852;-116.998;2023-03-31T10:43:57;100651.06;;;22.42
45701;BMP280;36277;32.852;-116.998;2023-03-31T10:46:46;100657.75;;;22.39
45701;BMP280;36277;32.852;-116.998;2023-03-31T10:51:53;100660.44;;;22.31
45701;BMP280;36277;32.852;-116.998;2023-03-31T10:54:19;100656.16;;;22.29
45701;BMP280;36277;32.852;-116.998;2023-03-31T10:56:49;100655.97;;;22.30
45701;BMP280;36277;32.852;-116.998;2023-03-31T11:16:38;100651.66;;;22.12
45701;BMP280;36277;32.852;-116.998;2023-03-31T11:22:11;100656.63;;;22.08
45701;BMP280;36277;32.852;-116.998;2023-03-31T11:24:49;100657.47;;;22.01
45701;BMP280;36277;32.852;-116.998;2023-03-31T11:30:29;100657.81;;;21.98
45701;BMP280;36277;32.852;-116.998;2023-03-31T11:39:23;100647.13;;;21.87
45701;BMP280;36277;32.852;-116.998;2023-03-31T11:42:02;100649.69;;;21.88
45701;BMP280;36277;32.852;-116.998;2023-03-31T11:44:56;100648.16;;;21.86
45701;BMP280;36277;32.852;-116.998;2023-03-31T11:47:31;100645.03;;;21.81
45701;BMP280;36277;32.852;-116.998;2023-03-31T11:50:21;100642.66;;;21.86
45701;BMP280;36277;32.852;-116.998;2023-03-31T11:52:57;100636.81;;;21.81
45701;BMP280;36277;32.852;-116.998;2023-03-31T11:55:28;100638.16;;;21.77
45701;BMP280;36277;32.852;-116.998;2023-03-31T12:00:35;100639.56;;;21.81
45701;BMP280;36277;32.852;-116.998;2023-03-31T12:05:56;100643.47;;;21.71
45701;BMP280;36277;32.852;-116.998;2023-03-31T12:08:36;100640.53;;;21.72
45701;BMP280;36277;32.852;-116.998;2023-03-31T12:16:39;100648.78;;;21.64
45701;BMP280;36277;32.852;-116.998;2023-03-31T12:22:18;100655.63;;;21.60
45701;BMP280;36277;32.852;-116.998;2023-03-31T12:24:46;100660.19;;;21.52
45701;BMP280;36277;32.852;-116.998;2023-03-31T12:30:04;100652.69;;;21.62
45701;BMP280;36277;32.852;-116.998;2023-03-31T12:32:48;100642.25;;;21.65
45701;BMP280;36277;32.852;-116.998;2023-03-31T12:35:28;100642.97;;;21.75
45701;BMP280;36277;32.852;-116.998;2023-03-31T12:46:40;100648.41;;;22.16
45701;BMP280;36277;32.852;-116.998;2023-03-31T12:55:20;100650.88;;;22.43
45701;BMP280;36277;32.852;-116.998;2023-03-31T12:57:51;100661.53;;;22.38
45701;BMP280;36277;32.852;-116.998;2023-03-31T13:00:21;100660.34;;;22.41
45701;BMP280;36277;32.852;-116.998;2023-03-31T13:02:49;100663.44;;;22.38
45701;BMP280;36277;32.852;-116.998;2023-03-31T13:08:07;100656.56;;;22.34
45701;BMP280;36277;32.852;-116.998;2023-03-31T13:10:55;100654.78;;;22.33
45701;BMP280;36277;32.852;-116.998;2023-03-31T13:13:22;100659.25;;;22.26
45701;BMP280;36277;32.852;-116.998;2023-03-31T13:15:56;100663.72;;;22.27
45701;BMP280;36277;32.852;-116.998;2023-03-31T13:18:24;100659.44;;;22.24
45701;BMP280;36277;32.852;-116.998;2023-03-31T13:21:02;100659.09;;;22.27
45701;BMP280;36277;32.852;-116.998;2023-03-31T13:23:34;100648.22;;;22.18
45701;BMP280;36277;32.852;-116.998;2023-03-31T13:26:02;100654.94;;;22.15
45701;BMP280;36277;32.852;-116.998;2023-03-31T13:28:34;100660.28;;;22.17
45701;BMP280;36277;32.852;-116.998;2023-03-31T13:31:05;100660.75;;;22.12
45701;BMP280;36277;32.852;-116.998;2023-03-31T13:50:01;100664.31;;;21.97
45701;BMP280;36277;32.852;-116.998;2023-03-31T13:58:31;100686.25;;;21.81
45701;BMP280;36277;32.852;-116.998;2023-03-31T14:03:47;100680.72;;;21.73
45701;BMP280;36277;32.852;-116.998;2023-03-31T14:09:25;100687.81;;;21.84
45701;BMP280;36277;32.852;-116.998;2023-03-31T14:11:49;100681.28;;;21.77
45701;BMP280;36277;32.852;-116.998;2023-03-31T14:14:17;100694.88;;;21.86
45701;BMP280;36277;32.852;-116.998;2023-03-31T14:16:45;100683.88;;;21.86
45701;BMP280;36277;32.852;-116.998;2023-03-31T14:24:46;100679.09;;;21.88
45701;BMP280;36277;32.852;-116.998;2023-03-31T14:38:16;100710.28;;;21.79
45701;BMP280;36277;32.852;-116.998;2023-03-31T14:40:49;100707.53;;;21.79
45701;BMP280;36277;32.852;-116.998;2023-03-31T14:43:28;100714.59;;;21.82
45701;BMP280;36277;32.852;-116.998;2023-03-31T14:46:03;100722.69;;;21.83
45701;BMP280;36277;32.852;-116.998;2023-03-31T14:48:45;100721.66;;;21.84
45701;BMP280;36277;32.852;-116.998;2023-03-31T14:51:17;100722.31;;;21.78
45701;BMP280;36277;32.852;-116.998;2023-03-31T14:53:44;100722.97;;;21.72
45701;BMP280;36277;32.852;-116.998;2023-03-31T14:56:15;100724.53;;;21.75
45701;BMP280;36277;32.852;-116.998;2023-03-31T14:58:50;100727.81;;;21.78
45701;BMP280;36277;32.852;-116.998;2023-03-31T15:01:37;100727.28;;;21.75
45701;BMP280;36277;32.852;-116.998;2023-03-31T15:04:07;100723.28;;;21.69
45701;BMP280;36277;32.852;-116.998;2023-03-31T15:06:35;100730.50;;;21.70
45701;BMP280;36277;32.852;-116.998;2023-03-31T15:09:04;100722.75;;;21.66
45701;BMP280;36277;32.852;-116.998;2023-03-31T15:11:31;100729.13;;;21.66
45701;BMP280;36277;32.852;-116.998;2023-03-31T15:13:58;100719.84;;;21.67
45701;BMP280;36277;32.852;-116.998;2023-03-31T15:18:59;100718.28;;;21.65
45701;BMP280;36277;32.852;-116.998;2023-03-31T15:21:27;100723.63;;;21.66
45701;BMP280;36277;32.852;-116.998;2023-03-31T15:23:56;100714.69;;;21.64
45701;BMP280;36277;32.852;-116.998;2023-03-31T15:26:33;100710.22;;;21.63
45701;BMP280;36277;32.852;-116.998;2023-03-31T15:31:49;100715.63;;;21.55
45701;BMP280;36277;32.852;-116.998;2023-03-31T15:34:25;100719.63;;;21.61
45701;BMP280;36277;32.852;-116.998;2023-03-31T15:36:55;100723.69;;;21.57
45701;BMP280;36277;32.852;-116.998;2023-03-31T15:39:23;100726.22;;;21.68
45701;BMP280;36277;32.852;-116.998;2023-03-31T15:41:52;100725.56;;;21.74
45701;BMP280;36277;32.852;-116.998;2023-03-31T15:47:26;100735.63;;;21.98
45701;BMP280;36277;32.852;-116.998;2023-03-31T15:52:37;100737.78;;;22.20
45701;BMP280;36277;32.852;-116.998;2023-03-31T15:57:49;100742.50;;;22.44
45701;BMP280;36277;32.852;-116.998;2023-03-31T16:00:50;100740.78;;;22.51
45701;BMP280;36277;32.852;-116.998;2023-03-31T16:03:27;100739.41;;;22.47
45701;BMP280;36277;32.852;-116.998;2023-03-31T16:05:57;100737.88;;;22.44
45701;BMP280;36277;32.852;-116.998;2023-03-31T16:08:40;100735.81;;;22.46
45701;BMP280;36277;32.852;-116.998;2023-03-31T16:11:15;100733.59;;;22.42
45701;BMP280;36277;32.852;-116.998;2023-03-31T16:13:48;100741.13;;;22.40
45701;BMP280;36277;32.852;-116.998;2023-03-31T16:16:17;100752.97;;;22.40
45701;BMP280;36277;32.852;-116.998;2023-03-31T16:18:49;100752.97;;;22.40
45701;BMP280;36277;32.852;-116.998;2023-03-31T16:21:27;100744.41;;;22.43
45701;BMP280;36277;32.852;-116.998;2023-03-31T16:23:58;100754.53;;;22.43
45701;BMP280;36277;32.852;-116.998;2023-03-31T16:26:26;100751.09;;;22.41
45701;BMP280;36277;32.852;-116.998;2023-03-31T16:28:54;100745.53;;;22.33
45701;BMP280;36277;32.852;-116.998;2023-03-31T16:31:31;100752.97;;;22.40
45701;BMP280;36277;32.852;-116.998;2023-03-31T16:34:03;100749.22;;;22.41
45701;BMP280;36277;32.852;-116.998;2023-03-31T16:36:30;100756.63;;;22.41
45701;BMP280;36277;32.852;-116.998;2023-03-31T16:38:56;100756.44;;;22.42
45701;BMP280;36277;32.852;-116.998;2023-03-31T16:41:27;100752.47;;;22.45
45701;BMP280;36277;32.852;-116.998;2023-03-31T16:43:54;100756.09;;;22.45
45701;BMP280;36277;32.852;-116.998;2023-03-31T16:46:21;100756.94;;;22.46